OPA Logo
 
ASOS:
At:2022.07.02 1015 UTC
Wind:
Viz: 10 mile(s)
Sky: clear
Temp: 53 F (12 C)
DewP: 39 F (4 C)
RH: 57%
Baro: 30.01 in.
ob: KBDN 021015Z AUTO 00000KT 10SM CLR 12/04 A3001 RMK AO2

ASOS: KRDM
At:2022.07.02 0956 UTC
Wind:
Viz: 10 mile(s)
Sky: mostly clear
Temp: 50.0 F (10.0 C)
DewP: 37.0 F (2.8 C)
RH: 60%
Baro: 60%
Apache-SSL Logo

Valid HTML 4.01!

Central Oregon OPA Chapter

Chapter Officers 2006:

President
Gary E. Miller
109 NW Wilmington Ave.
Bend OR 97701
541 382-8588
gem@rellim.com

Vice President:
Open

Secretary/Treasurer:
Don Wilfong
210 SE Cessna Dr
Bend OR 97702
541 389-1456
dwnw@bendbroadband.com


Web page by: gem@rellim.com